createdAt,value
2023-03-15T00:03:15.006Z,22.39
2023-03-15T00:08:16.974Z,22.47
2023-03-15T00:13:18.427Z,22.50
2023-03-15T00:18:20.439Z,22.52
2023-03-15T00:23:21.858Z,22.40
2023-03-15T00:28:23.304Z,22.42
2023-03-15T00:33:24.713Z,22.47
2023-03-15T00:38:26.170Z,22.51
2023-03-15T00:43:27.543Z,22.48
2023-03-15T00:48:28.918Z,22.43
2023-03-15T00:53:30.718Z,22.44
2023-03-15T00:58:32.103Z,22.51
2023-03-15T01:03:36.646Z,22.53
2023-03-15T01:08:38.258Z,22.46
2023-03-15T01:13:39.712Z,22.40
2023-03-15T01:18:41.251Z,22.45
2023-03-15T01:23:42.675Z,22.51
2023-03-15T01:28:44.061Z,22.58
2023-03-15T01:33:45.491Z,22.49
2023-03-15T01:38:46.972Z,22.40
2023-03-15T01:43:48.376Z,22.45
2023-03-15T01:49:02.251Z,22.50
2023-03-15T01:54:08.076Z,22.50
2023-03-15T01:59:10.938Z,22.46
2023-03-15T02:04:15.350Z,22.42
2023-03-15T02:09:17.661Z,22.48
2023-03-15T02:14:19.057Z,22.51
2023-03-15T02:19:29.306Z,22.51
2023-03-15T02:24:33.841Z,22.45
2023-03-15T02:29:35.240Z,22.45
2023-03-15T02:34:36.643Z,22.55
2023-03-15T02:39:38.107Z,22.58
2023-03-15T02:44:40.177Z,22.48
2023-03-15T02:49:43.478Z,22.38
2023-03-15T02:54:44.927Z,22.42
2023-03-15T02:59:46.357Z,22.48
2023-03-15T03:04:48.002Z,22.51
2023-03-15T03:09:49.386Z,22.50
2023-03-15T03:14:50.759Z,22.44
2023-03-15T03:19:52.456Z,22.48
2023-03-15T03:24:53.876Z,22.56
2023-03-15T03:29:55.294Z,22.55
2023-03-15T03:34:56.694Z,22.50
2023-03-15T03:39:58.213Z,22.48
2023-03-15T03:44:59.589Z,22.54
2023-03-15T03:50:00.951Z,22.55
2023-03-15T03:55:03.603Z,22.53
2023-03-15T04:00:05.661Z,22.47
2023-03-15T04:05:07.536Z,22.49
2023-03-15T04:10:09.444Z,22.55
2023-03-15T04:15:11.591Z,22.54
2023-03-15T04:20:13.073Z,22.45
2023-03-15T04:25:14.555Z,22.45
2023-03-15T04:30:16.051Z,22.55
2023-03-15T04:35:17.494Z,22.54
2023-03-15T04:40:18.954Z,22.49
2023-03-15T04:45:20.352Z,22.43
2023-03-15T04:50:21.903Z,22.44
2023-03-15T04:55:23.370Z,22.50
2023-03-15T05:00:24.852Z,22.46
2023-03-15T05:05:26.349Z,22.41
2023-03-15T05:10:29.673Z,22.47
2023-03-15T05:15:31.301Z,22.50
2023-03-15T05:20:32.693Z,22.49
2023-03-15T05:25:34.068Z,22.48
2023-03-15T05:30:35.464Z,22.48
2023-03-15T05:35:36.875Z,22.55
2023-03-15T05:40:38.288Z,22.58
2023-03-15T05:45:40.033Z,22.51
2023-03-15T05:50:41.465Z,22.48
2023-03-15T05:55:42.869Z,22.57
2023-03-15T06:00:44.301Z,22.64
2023-03-15T06:05:45.678Z,22.61
2023-03-15T06:10:48.085Z,22.53
2023-03-15T06:15:49.452Z,22.51
2023-03-15T06:20:50.818Z,22.55
2023-03-15T06:25:52.235Z,22.59
2023-03-15T06:30:53.663Z,22.55
2023-03-15T06:35:55.099Z,22.55
2023-03-15T06:40:58.839Z,22.59
2023-03-15T06:46:00.360Z,22.65
2023-03-15T06:51:01.792Z,22.62
2023-03-15T06:56:03.213Z,22.53
2023-03-15T07:01:04.829Z,22.51
2023-03-15T07:06:06.219Z,22.54
2023-03-15T07:11:07.597Z,22.57
2023-03-15T07:16:09.004Z,22.57
2023-03-15T07:21:10.512Z,22.50
2023-03-15T07:26:11.891Z,22.45
2023-03-15T07:31:13.290Z,22.61
2023-03-15T07:36:14.709Z,22.70
2023-03-15T07:41:16.114Z,22.65
2023-03-15T07:46:17.509Z,22.83
2023-03-15T07:51:18.942Z,22.86
2023-03-15T07:56:20.344Z,22.87
2023-03-15T08:01:21.750Z,22.90
2023-03-15T08:06:23.138Z,22.95
2023-03-15T08:11:24.527Z,23.02
2023-03-15T08:16:25.954Z,22.97
2023-03-15T08:21:27.415Z,22.96
2023-03-15T08:26:28.796Z,23.07
2023-03-15T08:31:30.927Z,23.05
2023-03-15T08:36:33.061Z,23.03
2023-03-15T08:41:34.782Z,22.98
2023-03-15T08:46:36.222Z,23.08
2023-03-15T08:51:37.723Z,23.02
2023-03-15T08:56:39.186Z,23.09
2023-03-15T09:01:40.655Z,23.09
2023-03-15T09:06:42.141Z,23.10
2023-03-15T09:11:43.634Z,23.11
2023-03-15T09:16:45.081Z,23.14
2023-03-15T09:21:47.079Z,23.08
2023-03-15T09:26:48.493Z,23.12
2023-03-15T09:31:49.925Z,23.14
2023-03-15T09:36:52.908Z,23.20
2023-03-15T09:41:55.337Z,23.14
2023-03-15T09:47:08.815Z,23.13
2023-03-15T09:52:16.000Z,23.06
2023-03-15T09:57:19.742Z,23.01
2023-03-15T10:02:30.877Z,23.00
2023-03-15T10:07:32.834Z,23.05
2023-03-15T10:12:41.889Z,23.03
2023-03-15T10:17:58.460Z,23.04
2023-03-15T10:23:03.756Z,23.05
2023-03-15T10:28:12.791Z,23.10
2023-03-15T10:33:36.880Z,23.16
2023-03-15T10:38:38.454Z,23.12
2023-03-15T10:43:41.395Z,23.15
2023-03-15T10:48:59.792Z,23.21
2023-03-15T10:54:11.262Z,23.14
2023-03-15T10:59:20.869Z,23.20
2023-03-15T11:04:23.662Z,23.20
2023-03-15T11:09:26.512Z,23.30
2023-03-15T11:14:37.860Z,23.24
2023-03-15T11:19:42.038Z,23.31
2023-03-15T11:24:43.511Z,23.30
2023-03-15T11:29:49.938Z,23.30
2023-03-15T11:34:59.120Z,23.27
2023-03-15T11:40:18.130Z,23.28
2023-03-15T11:45:42.432Z,23.28
2023-03-15T11:50:45.334Z,23.32
2023-03-15T11:55:50.731Z,23.28
2023-03-15T12:00:54.957Z,23.26
2023-03-15T12:06:01.785Z,23.30
2023-03-15T12:11:10.607Z,23.33
2023-03-15T12:16:12.153Z,23.29
2023-03-15T12:21:24.236Z,23.23
2023-03-15T12:26:27.562Z,23.14
2023-03-15T12:31:56.116Z,23.06
2023-03-15T12:37:08.747Z,23.02
2023-03-15T12:42:29.032Z,22.96
2023-03-15T12:47:46.768Z,22.93
2023-03-15T12:52:53.385Z,22.84
2023-03-15T12:57:56.227Z,22.79
2023-03-15T13:03:10.425Z,22.81
2023-03-15T13:08:25.484Z,22.77
2023-03-15T13:13:32.825Z,22.82
2023-03-15T13:18:36.607Z,22.76
2023-03-15T13:23:38.523Z,22.73
2023-03-15T13:28:42.265Z,22.75
2023-03-15T13:33:49.565Z,22.74
2023-03-15T13:38:54.763Z,22.67
2023-03-15T13:44:02.055Z,22.65
2023-03-15T13:49:03.468Z,22.71
2023-03-15T13:54:17.448Z,22.68
2023-03-15T13:59:18.845Z,22.72
2023-03-15T14:04:20.232Z,22.70
2023-03-15T14:09:23.362Z,22.72
2023-03-15T14:14:26.500Z,22.67
2023-03-15T14:19:32.463Z,22.68
2023-03-15T14:24:38.705Z,22.69
2023-03-15T14:29:50.879Z,22.63
2023-03-15T14:34:58.332Z,22.71
2023-03-15T14:40:08.855Z,22.67
2023-03-15T14:45:11.682Z,22.60
2023-03-15T14:50:16.860Z,22.58
2023-03-15T14:55:20.786Z,22.63
2023-03-15T15:00:22.236Z,22.63
2023-03-15T15:05:26.362Z,22.61
2023-03-15T15:10:27.761Z,22.57
2023-03-15T15:15:29.139Z,22.65
2023-03-15T15:20:30.515Z,22.69
2023-03-15T15:25:33.665Z,22.71
2023-03-15T15:30:35.059Z,22.71
2023-03-15T15:35:36.444Z,22.68
2023-03-15T15:40:37.988Z,22.68
2023-03-15T15:45:39.630Z,22.69
2023-03-15T15:50:41.063Z,22.61
2023-03-15T15:55:43.947Z,22.66
2023-03-15T16:00:45.326Z,22.63
2023-03-15T16:05:46.799Z,22.58
2023-03-15T16:10:48.180Z,22.53
2023-03-15T16:15:49.601Z,22.56
2023-03-15T16:20:51.017Z,22.58
2023-03-15T16:25:55.364Z,22.56
2023-03-15T16:30:56.776Z,22.58
2023-03-15T16:35:58.192Z,22.52
2023-03-15T16:40:59.957Z,22.59
2023-03-15T16:46:01.381Z,22.57
2023-03-15T16:51:05.048Z,22.54
2023-03-15T16:56:09.084Z,22.46
2023-03-15T17:01:10.999Z,22.50
2023-03-15T17:06:20.136Z,22.37
2023-03-15T17:11:21.605Z,22.40
2023-03-15T17:16:23.316Z,22.45
2023-03-15T17:21:25.338Z,22.44
2023-03-15T17:26:29.052Z,22.43
2023-03-15T17:31:30.632Z,22.48
2023-03-15T17:36:37.484Z,22.52
2023-03-15T17:41:38.948Z,22.53
2023-03-15T17:46:40.444Z,22.39
2023-03-15T17:51:41.892Z,22.43
2023-03-15T17:56:43.306Z,22.51
2023-03-15T18:01:46.238Z,22.56
2023-03-15T18:06:47.672Z,22.46
2023-03-15T18:11:49.160Z,22.39
2023-03-15T18:16:50.580Z,22.43
2023-03-15T18:21:52.041Z,22.53
2023-03-15T18:26:53.417Z,22.57
2023-03-15T18:31:54.858Z,22.52
2023-03-15T18:36:56.315Z,22.48
2023-03-15T18:41:57.732Z,22.45
2023-03-15T18:46:59.127Z,22.55
2023-03-15T18:52:01.381Z,22.59
2023-03-15T18:57:02.763Z,22.49
2023-03-15T19:02:04.755Z,22.44
2023-03-15T19:07:06.214Z,22.46
2023-03-15T19:12:07.586Z,22.55
2023-03-15T19:17:09.133Z,22.57
2023-03-15T19:22:10.576Z,22.58
2023-03-15T19:27:11.992Z,22.46
2023-03-15T19:32:13.366Z,22.51
2023-03-15T19:37:14.971Z,22.58
2023-03-15T19:42:16.418Z,22.57
2023-03-15T19:47:17.815Z,22.51
2023-03-15T19:52:19.737Z,22.46
2023-03-15T19:57:21.222Z,22.53
2023-03-15T20:02:22.629Z,22.53
2023-03-15T20:07:23.991Z,22.51
2023-03-15T20:12:25.362Z,22.39
2023-03-15T20:17:27.369Z,22.47
2023-03-15T20:22:28.746Z,22.55
2023-03-15T20:27:33.791Z,22.54
2023-03-15T20:32:35.354Z,22.48
2023-03-15T20:37:37.512Z,22.46
2023-03-15T20:42:39.102Z,22.53
2023-03-15T20:47:41.198Z,22.57
2023-03-15T20:52:43.213Z,22.52
2023-03-15T20:57:44.631Z,22.41
2023-03-15T21:02:49.104Z,22.44
2023-03-15T21:07:50.506Z,22.55
2023-03-15T21:12:51.875Z,22.54
2023-03-15T21:17:53.245Z,22.44
2023-03-15T21:22:54.607Z,22.39
2023-03-15T21:27:56.336Z,22.47
2023-03-15T21:32:57.833Z,22.58
2023-03-15T21:37:59.216Z,22.51
2023-03-15T21:43:00.681Z,22.49
2023-03-15T21:48:02.074Z,22.46
2023-03-15T21:53:03.620Z,22.52
2023-03-15T21:58:05.056Z,22.55
2023-03-15T22:03:06.504Z,22.51
2023-03-15T22:08:07.919Z,22.45
2023-03-15T22:13:09.307Z,22.53
2023-03-15T22:18:10.790Z,22.55
2023-03-15T22:23:12.172Z,22.51
2023-03-15T22:28:13.645Z,22.51
2023-03-15T22:33:18.526Z,22.53
2023-03-15T22:38:19.903Z,22.55
2023-03-15T22:43:21.283Z,22.45
2023-03-15T22:48:23.141Z,22.45
2023-03-15T22:53:24.663Z,22.54
2023-03-15T22:58:26.137Z,22.57
2023-03-15T23:03:27.674Z,22.50
2023-03-15T23:08:29.052Z,22.44
2023-03-15T23:13:31.001Z,22.50
2023-03-15T23:18:35.295Z,22.56
2023-03-15T23:23:38.472Z,22.49
2023-03-15T23:28:39.871Z,22.47
2023-03-15T23:33:41.312Z,22.43
2023-03-15T23:38:42.758Z,22.47
2023-03-15T23:43:44.138Z,22.50
2023-03-15T23:48:45.591Z,22.57
2023-03-15T23:53:47.460Z,22.40
2023-03-15T23:58:48.827Z,22.42
